La Grande Rivière Airport
CYGL : now visible

Airfield :











YOU CAN JOIN US ON...

 
LOGIN :

Register | Disclaimer

   EN    FR    IT 

 









Legend :    VFR   Marginal VFR   IFR   Intensive IFR   Very Intensive IFR
Visi :
Ceiling :
>= 8 km
>= 3000ft
5 to 8 km
1000 to 3000 ft
1500m to 5 km
500 to 1000 ft
800 to 1500m
200 to 500 ft
< 800m
< 200 ft
Symbols :   Thunderstorms  Fog  Heavy snow  Heavy precipitations  Wind > 20 kt






- Airport Elevation : 639 ft
- IATA code : YGL


CYGL - La Grande Rivière

CURRENT METAR :
  • 130400Z 16008KT 15SM -SN OVC017 M24/M27 A3023 RMK SC8 SLP267

EXPIRED METARs :
  • 130300Z 16009KT 15SM -SN OVC019 M25/M28 A3023 RMK SC8 SLP268
  • 130200Z 17011KT 15SM -SN OVC016 M25/M29 A3024 RMK SC8 SLP272

TAF TAF CYGL
Valid from the 13 at 00:00 until the 14 at 00:00 UTC


122338Z 1300/1324 18010KT P6SM -SN SCT020 BKN060
TEMPO 1300/1314 21/2SM -SN OVC020
PROB40 1300/1308 2SM -SN
FM131400 18008KT P6SM IC SCT025
FM131800 18005KT P6SM IC FEW025 SCT120
BECMG 1318/1320 11005KT RMK NXT FCST BY 130600Z



MET'MAP, your aeronautical weather chart ! - Copyright ORBIFLY December 2007 - Disclaimer

ORBIFLY MET'MAP TEAM :

Programming & Development : Alexandra Zaïnal
Concept & original design : Baudouin d'Aumeries
Assistance for programming : Marc-Olivier Méhu
Technical & hardware support : Manuel Goepfert

Contact : metmap@orbifly.com




SOURCES & CREDITS :

   NOAA       Earth
Advisory